SDM185 URKA-UKFF
Flight info
| Callsign | SDM185 |
|---|---|
| Flight time | 0h 35m |
| Altitude | 20000 |
| Route | GAMAN2F GAMAN |
| Aircraft | B738/M-SDE2E3FGHIRWXY/LB1 |
Departure
| Time | 2026-05-07 19:34 |
|---|---|
| Airport | Anapa Vityazevo Airport (URKA) |
Arrival
| Time | 2026-05-07 20:10 |
|---|---|
| Airport | Simferopol International Airport (UKFF) |
| Time | Latitude | Longitude | Altitude | Speed | Heading |
|---|---|---|---|---|---|
| 2026-05-07 19:25 | 45.00693 | 37.34927 | 157 ft | 0 kts | 221° |
| 2026-05-07 19:31 | 45.00689 | 37.34922 | 157 ft | 4 kts | 221° |
| 2026-05-07 19:32 | 45.00636 | 37.34913 | 156 ft | 0 kts | 131° |
| 2026-05-07 19:32 | 45.00634 | 37.34919 | 156 ft | 6 kts | 114° |
| 2026-05-07 19:32 | 45.00744 | 37.35102 | 159 ft | 31 kts | 43° |
| 2026-05-07 19:32 | 45.00894 | 37.35293 | 164 ft | 26 kts | 43° |
| 2026-05-07 19:33 | 45.01015 | 37.35449 | 169 ft | 21 kts | 41° |
| 2026-05-07 19:33 | 45.01071 | 37.35585 | 173 ft | 12 kts | 95° |
| 2026-05-07 19:33 | 45.01059 | 37.35671 | 173 ft | 21 kts | 110° |
| 2026-05-07 19:33 | 45.00955 | 37.35683 | 172 ft | 16 kts | 221° |
| 2026-05-07 19:34 | 45.00845 | 37.35542 | 169 ft | 46 kts | 222° |
| 2026-05-07 19:34 | 45.00310 | 37.34858 | 174 ft | 155 kts | 222° |
| 2026-05-07 19:34 | 44.99465 | 37.33765 | 1247 ft | 175 kts | 222° |
| 2026-05-07 19:34 | 44.98645 | 37.32727 | 2830 ft | 162 kts | 223° |
| 2026-05-07 19:35 | 44.97831 | 37.31676 | 3652 ft | 162 kts | 223° |
| 2026-05-07 19:35 | 44.96929 | 37.30507 | 4329 ft | 200 kts | 223° |
| 2026-05-07 19:35 | 44.95844 | 37.29109 | 4980 ft | 222 kts | 222° |
| 2026-05-07 19:35 | 44.94696 | 37.27599 | 5618 ft | 231 kts | 228° |
| 2026-05-07 19:36 | 44.93987 | 37.25503 | 6271 ft | 249 kts | 262° |
| 2026-05-07 19:36 | 44.94092 | 37.23062 | 6938 ft | 254 kts | 279° |
| 2026-05-07 19:36 | 44.94371 | 37.20593 | 7592 ft | 259 kts | 278° |
| 2026-05-07 19:36 | 44.94629 | 37.18091 | 8248 ft | 262 kts | 278° |
| 2026-05-07 19:37 | 44.94895 | 37.15516 | 8996 ft | 273 kts | 278° |
| 2026-05-07 19:37 | 44.95187 | 37.12720 | 9758 ft | 307 kts | 278° |
| 2026-05-07 19:37 | 44.95510 | 37.09663 | 10489 ft | 327 kts | 278° |
| 2026-05-07 19:37 | 44.95824 | 37.06444 | 11251 ft | 334 kts | 278° |
| 2026-05-07 19:38 | 44.96123 | 37.03227 | 12025 ft | 338 kts | 278° |
| 2026-05-07 19:38 | 44.96459 | 36.99932 | 12804 ft | 342 kts | 279° |
| 2026-05-07 19:38 | 44.96782 | 36.96604 | 13597 ft | 345 kts | 278° |
| 2026-05-07 19:38 | 44.97085 | 36.93238 | 14370 ft | 348 kts | 278° |
| 2026-05-07 19:39 | 44.97385 | 36.89867 | 15143 ft | 353 kts | 278° |
| 2026-05-07 19:39 | 44.97686 | 36.86417 | 15929 ft | 356 kts | 278° |
| 2026-05-07 19:39 | 44.97983 | 36.82969 | 16701 ft | 360 kts | 278° |
| 2026-05-07 19:39 | 44.98286 | 36.79423 | 17489 ft | 362 kts | 278° |
| 2026-05-07 19:40 | 44.98583 | 36.75920 | 18262 ft | 366 kts | 278° |
| 2026-05-07 19:40 | 44.98885 | 36.72328 | 19053 ft | 372 kts | 278° |
| 2026-05-07 19:40 | 44.99192 | 36.68699 | 19841 ft | 378 kts | 278° |
| 2026-05-07 19:40 | 44.99509 | 36.64986 | 20190 ft | 388 kts | 279° |
| 2026-05-07 19:41 | 44.99828 | 36.61265 | 20183 ft | 381 kts | 279° |
| 2026-05-07 19:41 | 45.00201 | 36.57646 | 20188 ft | 378 kts | 283° |
| 2026-05-07 19:41 | 45.00879 | 36.54110 | 20186 ft | 379 kts | 291° |
| 2026-05-07 19:41 | 45.01866 | 36.50686 | 20183 ft | 377 kts | 298° |
| 2026-05-07 19:42 | 45.03107 | 36.47457 | 20184 ft | 376 kts | 302° |
| 2026-05-07 19:42 | 45.04155 | 36.44069 | 20183 ft | 379 kts | 288° |
| 2026-05-07 19:42 | 45.04926 | 36.40498 | 20183 ft | 378 kts | 293° |
| 2026-05-07 19:42 | 45.05960 | 36.37089 | 20184 ft | 377 kts | 296° |
| 2026-05-07 19:43 | 45.07015 | 36.33741 | 20180 ft | 377 kts | 295° |
| 2026-05-07 19:43 | 45.08070 | 36.30374 | 20178 ft | 378 kts | 295° |
| 2026-05-07 19:43 | 45.09138 | 36.26963 | 20180 ft | 377 kts | 295° |
| 2026-05-07 19:43 | 45.10197 | 36.23585 | 20174 ft | 377 kts | 295° |
| 2026-05-07 19:44 | 45.11266 | 36.20171 | 20174 ft | 378 kts | 295° |
| 2026-05-07 19:44 | 45.12176 | 36.16683 | 20170 ft | 380 kts | 283° |
| 2026-05-07 19:44 | 45.12202 | 36.12987 | 20174 ft | 384 kts | 259° |
| 2026-05-07 19:44 | 45.11208 | 36.09476 | 20182 ft | 385 kts | 241° |
| 2026-05-07 19:45 | 45.09833 | 36.06234 | 20177 ft | 386 kts | 239° |
| 2026-05-07 19:45 | 45.08244 | 36.03196 | 20170 ft | 387 kts | 227° |
| 2026-05-07 19:45 | 45.06248 | 36.00679 | 20176 ft | 386 kts | 216° |
| 2026-05-07 19:45 | 45.04009 | 35.98597 | 20176 ft | 386 kts | 212° |
| 2026-05-07 19:46 | 45.01756 | 35.96563 | 20167 ft | 385 kts | 212° |
| 2026-05-07 19:46 | 44.99520 | 35.94537 | 20168 ft | 385 kts | 212° |
| 2026-05-07 19:46 | 44.97241 | 35.92477 | 20176 ft | 386 kts | 212° |
| 2026-05-07 19:46 | 44.95002 | 35.90456 | 20164 ft | 385 kts | 212° |
| 2026-05-07 19:47 | 44.92729 | 35.88410 | 20176 ft | 385 kts | 212° |
| 2026-05-07 19:47 | 44.90494 | 35.86399 | 20172 ft | 385 kts | 212° |
| 2026-05-07 19:47 | 44.88220 | 35.84352 | 20176 ft | 386 kts | 212° |
| 2026-05-07 19:47 | 44.85981 | 35.82339 | 20178 ft | 385 kts | 212° |
| 2026-05-07 19:48 | 44.83723 | 35.80313 | 20173 ft | 385 kts | 212° |
| 2026-05-07 19:48 | 44.81464 | 35.78283 | 20174 ft | 385 kts | 212° |
| 2026-05-07 19:48 | 44.79200 | 35.76242 | 20175 ft | 385 kts | 214° |
| 2026-05-07 19:48 | 44.77198 | 35.73798 | 20166 ft | 385 kts | 231° |
| 2026-05-07 19:49 | 44.75843 | 35.70569 | 20177 ft | 383 kts | 249° |
| 2026-05-07 19:49 | 44.75006 | 35.67068 | 20183 ft | 383 kts | 254° |
| 2026-05-07 19:49 | 44.74215 | 35.63520 | 20175 ft | 383 kts | 253° |
| 2026-05-07 19:49 | 44.73405 | 35.59948 | 20173 ft | 383 kts | 253° |
| 2026-05-07 19:50 | 44.72597 | 35.56377 | 20179 ft | 384 kts | 253° |
| 2026-05-07 19:50 | 44.71791 | 35.52817 | 20175 ft | 383 kts | 253° |
| 2026-05-07 19:50 | 44.70987 | 35.49271 | 20166 ft | 384 kts | 253° |
| 2026-05-07 19:50 | 44.70166 | 35.45669 | 20176 ft | 384 kts | 253° |
| 2026-05-07 19:51 | 44.69358 | 35.42118 | 20178 ft | 384 kts | 254° |
| 2026-05-07 19:51 | 44.68560 | 35.38596 | 20170 ft | 382 kts | 254° |
| 2026-05-07 19:51 | 44.67746 | 35.35017 | 20172 ft | 383 kts | 254° |
| 2026-05-07 19:51 | 44.66941 | 35.31481 | 20168 ft | 383 kts | 253° |
| 2026-05-07 19:52 | 44.66122 | 35.27888 | 20161 ft | 383 kts | 253° |
| 2026-05-07 19:52 | 44.65324 | 35.24372 | 20163 ft | 383 kts | 253° |
| 2026-05-07 19:52 | 44.64519 | 35.20830 | 20164 ft | 383 kts | 253° |
| 2026-05-07 19:52 | 44.63700 | 35.17233 | 20170 ft | 384 kts | 253° |
| 2026-05-07 19:53 | 44.62903 | 35.13729 | 20162 ft | 382 kts | 253° |
| 2026-05-07 19:53 | 44.62090 | 35.10155 | 20163 ft | 383 kts | 253° |
| 2026-05-07 19:53 | 44.61461 | 35.06546 | 20161 ft | 381 kts | 262° |
| 2026-05-07 19:53 | 44.61130 | 35.02863 | 20166 ft | 381 kts | 264° |
| 2026-05-07 19:54 | 44.60818 | 34.99192 | 20163 ft | 381 kts | 264° |
| 2026-05-07 19:54 | 44.60502 | 34.95537 | 20154 ft | 381 kts | 264° |
| 2026-05-07 19:54 | 44.60181 | 34.91860 | 20161 ft | 381 kts | 264° |
| 2026-05-07 19:54 | 44.59858 | 34.88166 | 20165 ft | 382 kts | 264° |
| 2026-05-07 19:55 | 44.59531 | 34.84465 | 19992 ft | 386 kts | 264° |
| 2026-05-07 19:55 | 44.59208 | 34.80741 | 19373 ft | 383 kts | 264° |
| 2026-05-07 19:55 | 44.58897 | 34.77109 | 18811 ft | 376 kts | 264° |
| 2026-05-07 19:55 | 44.58587 | 34.73507 | 18213 ft | 370 kts | 264° |
| 2026-05-07 19:56 | 44.58288 | 34.69988 | 17633 ft | 365 kts | 264° |
| 2026-05-07 19:56 | 44.57991 | 34.66451 | 17052 ft | 363 kts | 264° |
| 2026-05-07 19:56 | 44.57702 | 34.62962 | 16466 ft | 363 kts | 264° |
| 2026-05-07 19:56 | 44.57415 | 34.59478 | 15861 ft | 361 kts | 264° |
| 2026-05-07 19:57 | 44.57137 | 34.56034 | 15238 ft | 357 kts | 264° |
| 2026-05-07 19:57 | 44.56868 | 34.52583 | 14605 ft | 354 kts | 264° |
| 2026-05-07 19:57 | 44.56611 | 34.49185 | 13953 ft | 352 kts | 264° |
| 2026-05-07 19:57 | 44.56362 | 34.45770 | 13208 ft | 352 kts | 264° |
| 2026-05-07 19:58 | 44.56126 | 34.42419 | 12463 ft | 352 kts | 264° |
| 2026-05-07 19:58 | 44.55891 | 34.39000 | 11712 ft | 351 kts | 264° |
| 2026-05-07 19:58 | 44.55666 | 34.35616 | 10959 ft | 349 kts | 264° |
| 2026-05-07 19:58 | 44.55449 | 34.32287 | 10222 ft | 347 kts | 264° |
| 2026-05-07 19:59 | 44.55236 | 34.28922 | 9557 ft | 342 kts | 264° |
| 2026-05-07 19:59 | 44.55036 | 34.25690 | 9069 ft | 333 kts | 264° |
| 2026-05-07 19:59 | 44.54841 | 34.22502 | 8576 ft | 325 kts | 264° |
| 2026-05-07 19:59 | 44.54665 | 34.19406 | 8093 ft | 318 kts | 266° |
| 2026-05-07 20:00 | 44.54799 | 34.16387 | 7560 ft | 294 kts | 281° |
| 2026-05-07 20:00 | 44.55405 | 34.13809 | 7072 ft | 270 kts | 296° |
| 2026-05-07 20:00 | 44.56446 | 34.11668 | 6578 ft | 267 kts | 312° |
| 2026-05-07 20:00 | 44.57872 | 34.10023 | 6094 ft | 264 kts | 329° |
| 2026-05-07 20:01 | 44.59534 | 34.09040 | 5701 ft | 264 kts | 346° |
| 2026-05-07 20:01 | 44.61340 | 34.08550 | 5297 ft | 262 kts | 352° |
| 2026-05-07 20:01 | 44.63134 | 34.08188 | 4895 ft | 260 kts | 352° |
| 2026-05-07 20:01 | 44.64899 | 34.07831 | 4614 ft | 256 kts | 352° |
| 2026-05-07 20:02 | 44.66706 | 34.07462 | 4441 ft | 264 kts | 352° |
| 2026-05-07 20:02 | 44.68512 | 34.07090 | 4267 ft | 265 kts | 352° |
| 2026-05-07 20:02 | 44.70340 | 34.06710 | 4091 ft | 265 kts | 352° |
| 2026-05-07 20:02 | 44.72173 | 34.06323 | 3913 ft | 264 kts | 352° |
| 2026-05-07 20:03 | 44.73974 | 34.05939 | 3737 ft | 263 kts | 352° |
| 2026-05-07 20:03 | 44.75780 | 34.05553 | 3653 ft | 262 kts | 352° |
| 2026-05-07 20:03 | 44.77579 | 34.05167 | 3652 ft | 262 kts | 352° |
| 2026-05-07 20:03 | 44.79398 | 34.04770 | 3653 ft | 262 kts | 351° |
| 2026-05-07 20:04 | 44.81152 | 34.04090 | 3651 ft | 263 kts | 341° |
| 2026-05-07 20:04 | 44.82778 | 34.02978 | 3649 ft | 264 kts | 324° |
| 2026-05-07 20:04 | 44.84043 | 34.01167 | 3646 ft | 246 kts | 308° |
| 2026-05-07 20:04 | 44.84993 | 33.99386 | 3645 ft | 220 kts | 307° |
| 2026-05-07 20:05 | 44.85905 | 33.97669 | 3660 ft | 215 kts | 307° |
| 2026-05-07 20:05 | 44.86795 | 33.95995 | 3684 ft | 216 kts | 307° |
| 2026-05-07 20:05 | 44.87741 | 33.94376 | 3649 ft | 212 kts | 320° |
| 2026-05-07 20:05 | 44.89028 | 33.93370 | 3513 ft | 207 kts | 347° |
| 2026-05-07 20:06 | 44.90440 | 33.93339 | 3392 ft | 207 kts | 14° |
| 2026-05-07 20:06 | 44.91831 | 33.93811 | 3248 ft | 207 kts | 8° |
| 2026-05-07 20:06 | 44.93285 | 33.93785 | 3036 ft | 209 kts | 356° |
| 2026-05-07 20:06 | 44.94717 | 33.93616 | 2722 ft | 198 kts | 359° |
| 2026-05-07 20:07 | 44.96004 | 33.93813 | 2385 ft | 178 kts | 12° |
| 2026-05-07 20:07 | 44.97167 | 33.94172 | 2073 ft | 174 kts | 20° |
| 2026-05-07 20:07 | 44.98199 | 33.94899 | 1918 ft | 157 kts | 28° |
| 2026-05-07 20:07 | 44.99188 | 33.95338 | 1630 ft | 145 kts | 14° |
| 2026-05-07 20:08 | 45.00139 | 33.95635 | 1325 ft | 134 kts | 13° |
| 2026-05-07 20:08 | 45.01033 | 33.95937 | 1161 ft | 135 kts | 14° |
| 2026-05-07 20:08 | 45.01931 | 33.96251 | 962 ft | 130 kts | 13° |
| 2026-05-07 20:08 | 45.02822 | 33.96547 | 785 ft | 129 kts | 14° |
| 2026-05-07 20:09 | 45.03676 | 33.96839 | 627 ft | 125 kts | 14° |
| 2026-05-07 20:09 | 45.04455 | 33.97107 | 592 ft | 97 kts | 13° |
| 2026-05-07 20:09 | 45.04958 | 33.97280 | 589 ft | 54 kts | 14° |
| 2026-05-07 20:10 | 45.05419 | 33.97444 | 586 ft | 40 kts | 13° |
| 2026-05-07 20:10 | 45.05739 | 33.97585 | 585 ft | 43 kts | 31° |
| 2026-05-07 20:10 | 45.05899 | 33.97823 | 588 ft | 23 kts | 92° |
| 2026-05-07 20:10 | 45.05775 | 33.97891 | 590 ft | 26 kts | 191° |
| 2026-05-07 20:11 | 45.05598 | 33.97845 | 590 ft | 26 kts | 189° |
| 2026-05-07 20:11 | 45.05357 | 33.97783 | 590 ft | 41 kts | 192° |
| 2026-05-07 20:11 | 45.05051 | 33.97678 | 593 ft | 41 kts | 193° |
| 2026-05-07 20:11 | 45.04794 | 33.97592 | 595 ft | 34 kts | 196° |
| 2026-05-07 20:12 | 45.04570 | 33.97514 | 596 ft | 36 kts | 193° |
| 2026-05-07 20:12 | 45.04321 | 33.97428 | 598 ft | 32 kts | 195° |
| 2026-05-07 20:12 | 45.04118 | 33.97358 | 600 ft | 27 kts | 193° |
| 2026-05-07 20:12 | 45.03946 | 33.97302 | 603 ft | 23 kts | 193° |
| 2026-05-07 20:13 | 45.03807 | 33.97256 | 605 ft | 17 kts | 193° |
| 2026-05-07 20:13 | 45.03649 | 33.97200 | 607 ft | 25 kts | 194° |
| 2026-05-07 20:13 | 45.03522 | 33.97218 | 607 ft | 17 kts | 107° |
| 2026-05-07 20:13 | 45.03482 | 33.97440 | 611 ft | 25 kts | 104° |
| 2026-05-07 20:14 | 45.03442 | 33.97673 | 613 ft | 28 kts | 103° |
| 2026-05-07 20:14 | 45.03406 | 33.97878 | 620 ft | 14 kts | 103° |
| 2026-05-07 20:14 | 45.03428 | 33.97993 | 622 ft | 16 kts | 22° |
| 2026-05-07 20:14 | 45.03484 | 33.98013 | 622 ft | 0 kts | 14° |